Time;durP1;ratioP1;P1;durP2;ratioP2;P2;SDS_P1;SDS_P2;PMS_P1;PMS_P2;Temp;Humidity;BMP_temperature;BMP_pressure;BME280_temperature;BME280_humidity;BME280_pressure;Samples;Min_cycle;Max_cycle;Signal;HPM_P1;HPM_P2
2022/10/04 00:01:42;;;;;;;;;41.75;35.50;;;;;13.12;66.20;101965.53;5010314;28;45438;-74
2022/10/04 00:04:28;;;;;;;;;39.25;34.50;;;;;13.18;66.51;101974.41;5018537;28;45397;-74
2022/10/04 00:07:14;;;;;;;;;42.75;36.75;;;;;13.17;66.21;101972.63;4986593;28;45478;-75
2022/10/04 00:09:46;;;;;;;;;44.00;37.75;;;;;13.15;66.47;101974.41;4996875;28;46539;-74
2022/10/04 00:12:32;;;;;;;;;37.50;33.75;;;;;13.12;66.50;101971.72;4997187;28;45496;-74
2022/10/04 00:15:02;;;;;;;;;46.50;37.75;;;;;13.11;66.57;101967.31;4985767;28;45356;-74
2022/10/04 00:17:31;;;;;;;;;38.75;34.25;;;;;13.07;66.54;101962.91;5013896;28;45496;-74
2022/10/04 00:19:57;;;;;;;;;38.00;34.00;;;;;13.07;66.31;101969.91;4999291;28;45392;-74
2022/10/04 00:22:28;;;;;;;;;41.00;35.00;;;;;13.05;66.48;101963.75;4999050;28;45219;-75
2022/10/04 00:25:06;;;;;;;;;36.50;33.75;;;;;13.06;66.21;101970.81;4990311;28;45411;-75
2022/10/04 00:27:33;;;;;;;;;39.75;34.00;;;;;13.04;65.88;101973.44;4999054;28;45240;-75
2022/10/04 00:30:01;;;;;;;;;45.00;37.00;;;;;13.01;66.33;101969.00;5001242;28;46469;-75
2022/10/04 00:32:39;;;;;;;;;47.75;40.00;;;;;13.00;66.64;101975.19;4985559;28;45423;-75
2022/10/04 00:35:24;;;;;;;;;46.25;37.50;;;;;12.99;66.65;101980.44;5002933;28;45374;-74
2022/10/04 00:38:00;;;;;;;;;41.50;35.25;;;;;12.97;66.74;101969.00;5002369;28;45656;-74
2022/10/04 00:40:32;;;;;;;;;37.75;34.00;;;;;12.95;67.05;101973.38;5002023;28;45441;-75
2022/10/04 00:43:03;;;;;;;;;46.00;38.75;;;;;12.95;66.78;101966.34;5001193;28;45325;-74
2022/10/04 00:45:32;;;;;;;;;42.50;36.75;;;;;12.90;67.18;101956.59;5002101;28;45345;-75
2022/10/04 00:48:07;;;;;;;;;47.75;38.50;;;;;12.97;67.26;101961.06;5007159;28;45466;-75
2022/10/04 00:50:37;;;;;;;;;42.75;36.25;;;;;12.90;67.21;101957.50;4996342;28;45465;-75
2022/10/04 00:53:13;;;;;;;;;51.75;39.75;;;;;12.91;67.26;101961.00;4996340;28;45190;-74
2022/10/04 00:55:51;;;;;;;;;46.00;37.25;;;;;12.93;67.42;101962.78;5017690;28;45292;-75
2022/10/04 00:58:23;;;;;;;;;44.00;35.75;;;;;12.90;67.27;101953.97;5017320;28;45509;-75
2022/10/04 01:00:53;;;;;;;;;40.25;35.75;;;;;12.90;67.22;101943.41;5002019;28;45464;-75
2022/10/04 01:03:27;;;;;;;;;41.25;34.75;;;;;12.89;67.03;101942.50;5002086;28;45366;-74
2022/10/04 01:05:58;;;;;;;;;36.75;33.75;;;;;12.89;66.88;101946.94;5002440;28;45532;-74
2022/10/04 01:08:26;;;;;;;;;38.25;33.25;;;;;12.86;66.82;101937.22;5002590;28;45261;-75
2022/10/04 01:10:57;;;;;;;;;40.00;35.25;;;;;12.79;66.47;101925.72;5001988;28;46158;-75
2022/10/04 01:13:34;;;;;;;;;40.75;36.75;;;;;12.80;66.91;101930.13;5002278;28;45451;-75
2022/10/04 01:16:15;;;;;;;;;43.75;35.50;;;;;12.77;66.43;101927.44;5000560;28;45599;-75
2022/10/04 01:18:41;;;;;;;;;35.00;31.50;;;;;12.72;66.64;101923.00;4995967;28;45472;-74
2022/10/04 01:21:18;;;;;;;;;43.25;36.50;;;;;12.68;66.50;101923.88;5001706;28;46261;-75
2022/10/04 01:23:47;;;;;;;;;39.00;35.50;;;;;12.64;66.61;101919.44;5001928;28;45298;-75
2022/10/04 01:26:33;;;;;;;;;37.50;34.25;;;;;12.60;66.59;101915.91;4995098;28;45292;-74
2022/10/04 01:29:10;;;;;;;;;44.00;36.25;;;;;12.54;66.92;101908.81;5020774;28;44889;-74
2022/10/04 01:31:44;;;;;;;;;44.00;36.00;;;;;12.53;66.80;101917.59;5006744;28;46943;-75
2022/10/04 01:34:16;;;;;;;;;41.50;36.00;;;;;12.46;67.13;101913.16;5000826;28;45428;-75
2022/10/04 01:36:43;;;;;;;;;44.75;37.75;;;;;12.45;66.94;101910.50;5001741;28;45352;-75
2022/10/04 01:39:09;;;;;;;;;44.50;36.75;;;;;12.41;67.13;101916.66;5001174;28;45488;-75
2022/10/04 01:41:52;;;;;;;;;44.25;38.50;;;;;12.40;67.27;101914.88;5000331;28;46481;-74
2022/10/04 01:44:29;;;;;;;;;46.25;38.25;;;;;12.38;67.32;101914.88;4989626;28;45336;-74
2022/10/04 01:46:58;;;;;;;;;41.25;36.00;;;;;12.34;67.55;101911.31;5001257;28;45348;-75
2022/10/04 01:49:29;;;;;;;;;47.75;38.25;;;;;12.33;67.41;101906.91;5016954;28;45500;-75
2022/10/04 01:52:21;;;;;;;;;47.75;38.75;;;;;12.32;67.67;101910.44;5003661;28;45391;-75
2022/10/04 01:55:00;;;;;;;;;46.50;37.75;;;;;12.33;67.95;101904.25;4996510;28;45274;-75
2022/10/04 01:57:51;;;;;;;;;37.25;34.00;;;;;12.32;67.78;101902.50;5016831;28;45376;-74
2022/10/04 02:00:20;;;;;;;;;48.75;38.00;;;;;12.31;67.70;101889.28;5014749;28;45887;-74
2022/10/04 02:02:57;;;;;;;;;42.00;36.00;;;;;12.28;67.50;101886.63;5001049;28;46623;-74
2022/10/04 02:05:34;;;;;;;;;43.75;36.25;;;;;12.27;67.57;101884.81;5001303;28;45385;-74
2022/10/04 02:08:08;;;;;;;;;34.50;32.75;;;;;12.21;67.48;101879.50;5001186;28;45257;-75
2022/10/04 02:10:37;;;;;;;;;42.00;36.25;;;;;12.22;67.66;101882.19;5001270;28;45475;-75
2022/10/04 02:13:08;;;;;;;;;47.75;38.75;;;;;12.21;67.70;101871.59;5007415;28;46200;-74
2022/10/04 02:15:38;;;;;;;;;49.50;38.00;;;;;12.23;67.74;101878.66;5004105;28;46300;-74
2022/10/04 02:18:10;;;;;;;;;42.00;35.50;;;;;12.23;67.69;101873.38;5001634;28;45329;-74
2022/10/04 02:20:39;;;;;;;;;40.75;35.50;;;;;12.18;67.64;101868.94;5001198;28;45346;-74
2022/10/04 02:23:05;;;;;;;;;46.00;37.50;;;;;12.14;67.09;101858.34;5000881;28;45540;-75
2022/10/04 02:25:30;;;;;;;;;43.00;36.25;;;;;12.17;67.20;101868.06;5000890;28;45368;-74
2022/10/04 02:27:56;;;;;;;;;41.25;34.75;;;;;12.15;67.19;101872.44;5001057;28;45403;-75
2022/10/04 02:30:23;;;;;;;;;46.25;38.00;;;;;12.10;67.30;101861.81;5013789;28;45546;-74
2022/10/04 02:32:59;;;;;;;;;45.25;35.50;;;;;12.09;67.28;101857.44;5003185;28;47907;-75
2022/10/04 02:35:29;;;;;;;;;39.75;35.00;;;;;12.07;67.44;101866.22;5000843;28;45245;-75
2022/10/04 02:38:04;;;;;;;;;44.00;36.50;;;;;12.05;67.56;101858.25;5001020;28;45280;-75
2022/10/04 02:40:38;;;;;;;;;39.25;34.25;;;;;11.99;67.58;101842.38;5000393;28;45332;-74
2022/10/04 02:43:11;;;;;;;;;37.50;32.50;;;;;12.02;67.28;101855.59;5000943;28;45469;-74
2022/10/04 02:45:37;;;;;;;;;41.25;34.50;;;;;12.03;67.58;101849.47;4998805;28;45372;-74
2022/10/04 02:48:32;;;;;;;;;38.25;35.25;;;;;12.01;67.59;101850.34;5000784;28;45515;-75
2022/10/04 02:51:11;;;;;;;;;44.50;35.25;;;;;12.02;67.80;101849.44;4999702;28;45319;-75
2022/10/04 02:54:09;;;;;;;;;46.75;36.75;;;;;12.01;67.71;101852.97;5000467;28;46070;-74
2022/10/04 02:56:36;;;;;;;;;42.25;36.00;;;;;11.97;67.77;101844.13;5000131;28;45530;-74
2022/10/04 02:59:04;;;;;;;;;42.50;35.00;;;;;11.97;67.80;101840.59;5000870;28;45452;-75
2022/10/04 03:01:52;;;;;;;;;44.00;38.00;;;;;11.90;67.67;101832.66;5000568;28;45475;-75
2022/10/04 03:04:22;;;;;;;;;37.25;34.00;;;;;11.94;68.03;101844.09;5000597;28;46262;-74
2022/10/04 03:06:49;;;;;;;;;39.50;34.50;;;;;11.87;68.21;101829.09;4999569;28;45437;-75
2022/10/04 03:09:16;;;;;;;;;39.25;33.00;;;;;11.93;68.24;101836.19;5000409;28;45404;-74
2022/10/04 03:11:42;;;;;;;;;34.25;32.00;;;;;11.90;68.34;101847.59;5000229;28;45683;-74
2022/10/04 03:14:21;;;;;;;;;35.25;31.75;;;;;11.90;68.28;101837.03;5000215;28;45536;-75
2022/10/04 03:16:52;;;;;;;;;34.75;31.00;;;;;11.90;68.33;101830.00;4999900;28;45434;-75
2022/10/04 03:19:20;;;;;;;;;34.25;29.75;;;;;11.87;68.08;101824.72;5000176;28;45313;-75
2022/10/04 03:21:50;;;;;;;;;34.25;29.25;;;;;11.84;68.13;101818.47;5000291;28;45479;-74
2022/10/04 03:24:31;;;;;;;;;37.25;31.00;;;;;11.86;68.11;101822.91;5008718;28;46410;-74
2022/10/04 03:26:59;;;;;;;;;31.25;29.75;;;;;11.87;68.25;101815.91;4999368;28;45334;-75
2022/10/04 03:29:29;;;;;;;;;38.75;30.50;;;;;11.83;68.18;101816.72;4999661;28;45510;-74
2022/10/04 03:31:57;;;;;;;;;29.75;27.75;;;;;11.84;68.50;101814.09;5001396;28;45326;-74
2022/10/04 03:34:32;;;;;;;;;36.75;32.00;;;;;11.82;68.19;101810.56;5014047;28;47170;-75
2022/10/04 03:36:59;;;;;;;;;33.50;29.75;;;;;11.78;67.82;101806.13;4998883;28;45248;-74
2022/10/04 03:39:31;;;;;;;;;28.75;27.25;;;;;11.75;67.60;101806.09;4997343;28;45375;-75
2022/10/04 03:41:58;;;;;;;;;33.25;31.00;;;;;11.68;67.81;101799.91;5013544;28;45437;-74
2022/10/04 03:44:24;;;;;;;;;28.75;27.50;;;;;11.72;68.00;101802.56;4999082;28;45563;-74
2022/10/04 03:46:49;;;;;;;;;31.25;27.25;;;;;11.70;68.03;101792.84;5013722;28;45335;-75
2022/10/04 03:49:25;;;;;;;;;36.25;29.00;;;;;11.68;68.20;101791.97;4999129;28;45431;-75
2022/10/04 03:51:51;;;;;;;;;31.75;30.50;;;;;11.63;68.16;101788.41;4997241;28;45585;-75
2022/10/04 03:54:22;;;;;;;;;31.50;27.75;;;;;11.63;68.11;101793.69;4998561;28;45291;-75
2022/10/04 03:56:50;;;;;;;;;33.00;26.75;;;;;11.59;67.69;101780.44;4998560;28;45431;-74
2022/10/04 03:59:17;;;;;;;;;35.00;32.25;;;;;11.59;68.10;101791.00;4988751;28;45234;-74
2022/10/04 04:01:51;;;;;;;;;32.00;30.75;;;;;11.56;67.94;101796.25;4992182;28;45297;-75
2022/10/04 04:04:20;;;;;;;;;35.75;31.75;;;;;11.58;68.01;101805.06;5008769;28;47607;-75
2022/10/04 04:06:59;;;;;;;;;31.50;28.50;;;;;11.54;68.21;101803.25;5013184;28;45418;-75
2022/10/04 04:09:36;;;;;;;;;34.75;32.00;;;;;11.50;68.11;101802.34;5017298;28;45361;-75
2022/10/04 04:12:08;;;;;;;;;26.50;25.50;;;;;11.50;68.40;101812.03;5002326;28;45257;-75
2022/10/04 04:14:35;;;;;;;;;30.25;29.75;;;;;11.44;68.55;101803.19;5016289;28;45436;-74
2022/10/04 04:17:24;;;;;;;;;27.25;24.00;;;;;11.48;68.33;101812.00;5002016;28;45301;-75
2022/10/04 04:19:50;;;;;;;;;32.75;30.00;;;;;11.40;68.67;101803.13;4989895;28;45459;-74
2022/10/04 04:22:17;;;;;;;;;33.50;29.00;;;;;11.41;68.64;101811.06;5002030;28;45421;-75
2022/10/04 04:24:44;;;;;;;;;31.25;29.00;;;;;11.35;68.77;101808.34;5006979;28;45572;-74
2022/10/04 04:27:12;;;;;;;;;30.00;27.75;;;;;11.45;68.85;101831.31;5005918;28;45459;-74
2022/10/04 04:29:49;;;;;;;;;29.75;29.75;;;;;11.46;69.14;101824.28;5002054;28;45250;-74
2022/10/04 04:32:27;;;;;;;;;30.25;28.25;;;;;11.44;68.82;101819.00;4989669;28;45186;-74
2022/10/04 04:34:57;;;;;;;;;27.50;25.50;;;;;11.43;69.08;101825.13;5001879;28;45342;-75
2022/10/04 04:37:23;;;;;;;;;29.75;27.75;;;;;11.44;69.14;101829.56;5003631;28;46163;-75
2022/10/04 04:39:53;;;;;;;;;32.50;30.00;;;;;11.42;68.99;101823.38;5002113;28;45300;-75
2022/10/04 04:42:32;;;;;;;;;34.25;32.00;;;;;11.41;68.76;101821.63;5002596;28;45451;-75
2022/10/04 04:45:21;;;;;;;;;37.50;33.25;;;;;11.34;68.80;101825.06;5001984;28;45357;-74
2022/10/04 04:47:49;;;;;;;;;36.25;33.00;;;;;11.36;68.68;101831.22;5002430;28;45396;-75
2022/10/04 04:50:21;;;;;;;;;38.75;33.50;;;;;11.30;68.65;101832.91;5002582;28;45321;-75
2022/10/04 04:52:49;;;;;;;;;39.25;35.00;;;;;11.27;68.79;101826.72;5001083;28;45426;-74
2022/10/04 04:55:27;;;;;;;;;34.25;32.25;;;;;11.23;68.96;101822.31;5018856;28;47299;-74
2022/10/04 04:57:57;;;;;;;;;37.00;33.00;;;;;11.24;68.87;101825.81;5002341;28;45308;-75
2022/10/04 05:00:30;;;;;;;;;41.25;34.50;;;;;11.23;69.04;101827.56;4997435;28;45663;-75
2022/10/04 05:02:58;;;;;;;;;35.00;29.50;;;;;11.19;68.99;101825.75;4998007;28;45443;-75
2022/10/04 05:05:27;;;;;;;;;30.50;29.25;;;;;11.20;68.83;101842.44;5002306;28;46206;-75
2022/10/04 05:08:14;;;;;;;;;27.00;24.50;;;;;11.13;68.70;101841.50;5003691;28;45307;-75
2022/10/04 05:10:54;;;;;;;;;27.00;27.00;;;;;11.09;68.62;101847.59;5017481;28;45189;-75
2022/10/04 05:13:23;;;;;;;;;28.50;27.50;;;;;11.03;68.04;101837.00;4989614;28;45447;-75
2022/10/04 05:15:53;;;;;;;;;32.50;30.50;;;;;11.01;68.56;101839.63;5001889;28;46258;-75
2022/10/04 05:18:27;;;;;;;;;32.25;29.50;;;;;10.91;68.67;101823.69;5001931;28;45428;-75
2022/10/04 05:20:55;;;;;;;;;37.00;33.00;;;;;10.93;68.80;101838.66;4996496;28;45443;-75
2022/10/04 05:23:20;;;;;;;;;37.50;31.25;;;;;10.88;68.80;101828.88;5008216;28;46558;-75
2022/10/04 05:25:47;;;;;;;;;30.75;28.25;;;;;10.82;69.13;101824.44;5001471;28;45294;-75
2022/10/04 05:28:14;;;;;;;;;35.25;34.00;;;;;10.70;69.56;101813.75;5001797;28;45174;-75
2022/10/04 05:31:07;;;;;;;;;34.50;30.50;;;;;10.74;69.39;101836.63;4998745;28;45308;-75
2022/10/04 05:33:44;;;;;;;;;38.00;35.25;;;;;10.71;69.40;101829.56;4994938;28;45261;-75
2022/10/04 05:36:09;;;;;;;;;34.50;32.00;;;;;10.69;69.63;101833.03;4990225;28;46297;-75
2022/10/04 05:39:01;;;;;;;;;45.50;37.50;;;;;10.66;69.52;101822.47;5001370;28;45434;-75
2022/10/04 05:41:50;;;;;;;;;45.00;37.25;;;;;10.62;69.50;101826.81;5017120;28;45313;-75
2022/10/04 05:44:30;;;;;;;;;44.00;36.00;;;;;10.54;69.79;101821.44;4990059;28;45505;-75
2022/10/04 05:46:58;;;;;;;;;41.00;33.00;;;;;10.47;69.50;101810.81;5000997;28;46610;-75
2022/10/04 05:49:27;;;;;;;;;44.00;36.50;;;;;10.54;69.64;101828.47;4993934;28;45480;-75
2022/10/04 05:52:00;;;;;;;;;46.50;39.00;;;;;10.42;69.75;101821.25;5001390;28;45362;-75
2022/10/04 05:54:29;;;;;;;;;50.00;40.00;;;;;10.40;69.95;101816.84;5001404;28;45563;-75
2022/10/04 05:57:19;;;;;;;;;41.75;35.75;;;;;10.42;70.07;101820.38;5016488;28;47679;-75
2022/10/04 06:00:10;;;;;;;;;43.75;36.75;;;;;10.40;70.01;101816.84;4989980;28;45241;-76
2022/10/04 06:02:49;;;;;;;;;37.50;33.75;;;;;10.39;70.09;101821.22;5001225;28;45366;-75
2022/10/04 06:05:28;;;;;;;;;38.75;34.00;;;;;10.38;70.31;101822.09;4988798;28;45579;-75
2022/10/04 06:08:22;;;;;;;;;42.50;36.25;;;;;10.35;70.23;101816.78;5000902;28;45411;-75
2022/10/04 06:10:48;;;;;;;;;44.25;38.25;;;;;10.33;70.29;101822.03;5000710;28;45426;-75
2022/10/04 06:13:35;;;;;;;;;39.75;34.25;;;;;10.31;70.23;101830.75;5001060;28;45470;-75
2022/10/04 06:16:13;;;;;;;;;40.50;35.25;;;;;10.29;70.52;101830.75;5000611;28;45430;-75
2022/10/04 06:18:57;;;;;;;;;36.25;31.75;;;;;10.30;70.56;101826.38;4995838;28;47590;-75
2022/10/04 06:21:34;;;;;;;;;45.50;33.75;;;;;10.28;70.55;101828.09;4989780;28;45269;-76
2022/10/04 06:24:13;;;;;;;;;45.75;37.50;;;;;10.30;70.61;101827.25;5000288;28;45316;-76
2022/10/04 06:27:01;;;;;;;;;40.50;34.50;;;;;10.35;70.84;101836.09;5000833;28;45425;-76
2022/10/04 06:29:32;;;;;;;;;39.75;35.50;;;;;10.42;70.54;101839.69;4989111;28;45672;-76
2022/10/04 06:32:22;;;;;;;;;44.25;36.00;;;;;10.45;71.07;101844.09;4986348;28;45293;-77
2022/10/04 06:35:05;;;;;;;;;43.50;36.00;;;;;10.49;70.66;101848.56;4991009;28;45387;-77
2022/10/04 06:38:22;;;;;;;;;47.25;37.00;;;;;10.53;70.59;101847.75;5000541;28;45364;-77
2022/10/04 06:41:04;;;;;;;;;47.25;36.75;;;;;10.56;70.70;101850.44;4999423;28;46714;-75
2022/10/04 06:43:43;;;;;;;;;40.50;35.00;;;;;10.50;70.88;101842.44;4990105;28;45425;-76
2022/10/04 06:46:21;;;;;;;;;40.25;33.75;;;;;10.58;70.59;101846.06;5000185;28;45366;-75
2022/10/04 06:49:02;;;;;;;;;38.25;35.25;;;;;10.59;70.35;101847.84;5000382;28;45375;-76
2022/10/04 06:51:42;;;;;;;;;43.25;37.00;;;;;10.63;70.47;101844.38;4986946;28;45421;-75
2022/10/04 06:54:36;;;;;;;;;45.00;39.00;;;;;10.65;70.51;101845.28;5000208;28;45426;-75
2022/10/04 06:57:14;;;;;;;;;40.00;36.75;;;;;10.67;70.27;101843.56;5004099;28;45694;-76
2022/10/04 06:59:56;;;;;;;;;43.00;37.50;;;;;10.67;70.35;101846.19;4996620;28;45427;-77
2022/10/04 07:02:27;;;;;;;;;47.00;39.00;;;;;10.62;70.30;101831.22;4999762;28;46239;-75
2022/10/04 07:05:10;;;;;;;;;47.25;37.75;;;;;10.63;70.21;101833.84;5014966;28;45534;-75
2022/10/04 07:07:46;;;;;;;;;52.50;42.50;;;;;10.66;70.44;101838.25;5001688;28;45350;-75
2022/10/04 07:10:15;;;;;;;;;45.50;37.00;;;;;10.75;70.42;101852.47;4999757;28;45338;-76
2022/10/04 07:12:47;;;;;;;;;50.75;41.25;;;;;10.79;70.22;101858.63;4999599;28;45474;-75
2022/10/04 07:15:25;;;;;;;;;52.75;40.50;;;;;10.77;70.20;101842.84;4999430;28;45443;-76
2022/10/04 07:17:55;;;;;;;;;49.50;41.25;;;;;10.81;70.23;101846.38;4993211;28;45431;-75
2022/10/04 07:20:26;;;;;;;;;45.75;39.25;;;;;10.83;70.49;101839.38;4999485;28;45194;-75
2022/10/04 07:23:00;;;;;;;;;44.00;38.25;;;;;10.90;70.42;101843.84;4999332;28;45916;-75
2022/10/04 07:25:33;;;;;;;;;41.00;36.25;;;;;10.95;70.20;101851.81;4999177;28;45399;-75
2022/10/04 07:31:21;;;;;;;;;41.75;36.00;;;;;11.04;70.24;101844.06;4994791;28;45234;-76
2022/10/04 07:33:53;;;;;;;;;39.25;34.50;;;;;11.11;70.16;101848.50;4993020;28;45415;-74
2022/10/04 07:36:24;;;;;;;;;42.00;36.00;;;;;11.10;70.47;101841.47;4988570;28;45384;-74
2022/10/04 07:38:54;;;;;;;;;41.50;35.00;;;;;11.15;70.22;101839.78;5014072;28;45446;-75
2022/10/04 07:41:34;;;;;;;;;55.00;43.50;;;;;11.22;70.35;101840.72;4997765;28;45670;-75
2022/10/04 07:44:05;;;;;;;;;62.00;48.00;;;;;11.32;70.34;101850.50;4997142;28;45626;-75
2022/10/04 07:46:51;;;;;;;;;48.75;39.50;;;;;11.41;70.47;101849.72;5013476;28;45438;-75
2022/10/04 07:49:20;;;;;;;;;50.75;40.75;;;;;11.45;70.42;101835.72;4981631;28;45350;-75
2022/10/04 07:52:22;;;;;;;;;49.50;41.00;;;;;11.58;70.33;101848.16;4998765;28;46592;-75
2022/10/04 07:54:57;;;;;;;;;44.50;36.50;;;;;11.70;70.28;101852.66;4985665;28;46337;-75
2022/10/04 07:57:57;;;;;;;;;54.50;40.75;;;;;11.75;70.35;101843.03;5014099;28;45175;-75
2022/10/04 08:00:34;;;;;;;;;64.25;47.75;;;;;11.83;69.91;101836.06;5009582;28;45485;-77
2022/10/04 08:03:26;;;;;;;;;53.00;43.00;;;;;11.91;69.95;101842.31;4990116;28;45319;-79
2022/10/04 08:06:17;;;;;;;;;43.50;38.00;;;;;11.99;70.15;101837.09;4997268;28;45552;-75
2022/10/04 08:08:50;;;;;;;;;55.25;43.50;;;;;12.11;69.97;101846.91;4991206;28;45401;-75
2022/10/04 08:11:36;;;;;;;;;47.00;39.00;;;;;12.22;70.08;101839.94;4995340;28;45232;-75
2022/10/04 08:14:24;;;;;;;;;69.50;55.75;;;;;12.33;69.77;101840.88;4998847;28;45383;-76
2022/10/04 08:17:09;;;;;;;;;42.50;37.25;;;;;12.46;69.60;101843.63;4994592;28;46212;-75
2022/10/04 08:19:46;;;;;;;;;50.75;41.50;;;;;12.56;69.39;101838.41;4997248;28;45727;-75
2022/10/04 08:22:25;;;;;;;;;52.25;43.00;;;;;12.65;69.23;101828.75;5013057;28;45455;-75
2022/10/04 08:24:57;;;;;;;;;59.25;46.75;;;;;12.76;69.41;101829.69;4998210;28;45286;-75
2022/10/04 08:27:22;;;;;;;;;49.75;41.00;;;;;12.85;69.17;101832.34;4998266;28;45406;-75
2022/10/04 08:30:17;;;;;;;;;56.00;46.00;;;;;12.95;68.75;101830.66;5013265;28;45355;-75
2022/10/04 08:33:11;;;;;;;;;49.75;40.00;;;;;13.08;68.81;101839.50;4999851;28;45408;-75
2022/10/04 08:35:55;;;;;;;;;64.50;51.50;;;;;13.19;68.82;101846.59;4998500;28;45534;-75
2022/10/04 08:38:41;;;;;;;;;51.75;43.00;;;;;13.31;68.59;101851.09;4998270;28;45447;-75
2022/10/04 08:41:07;;;;;;;;;49.00;41.75;;;;;13.40;68.45;101853.75;4987753;28;45399;-76
2022/10/04 08:44:12;;;;;;;;;50.75;43.00;;;;;13.52;68.27;101855.53;4998260;28;45258;-75
2022/10/04 08:46:51;;;;;;;;;48.00;38.00;;;;;13.61;68.10;101860.84;4997707;28;45338;-77
2022/10/04 08:49:58;;;;;;;;;49.75;41.25;;;;;13.73;68.07;101865.25;4998657;28;45242;-83
2022/10/04 08:52:42;;;;;;;;;51.50;42.25;;;;;13.86;68.05;101858.22;5009417;28;45999;-75
2022/10/04 08:55:19;;;;;;;;;49.50;40.00;;;;;13.96;67.58;101859.13;5002695;28;45318;-77
2022/10/04 08:58:14;;;;;;;;;49.25;38.75;;;;;14.06;67.43;101855.56;5016882;28;45534;-80
2022/10/04 09:00:52;;;;;;;;;44.25;36.75;;;;;14.17;67.17;101858.25;5002763;28;46048;-77
2022/10/04 09:03:34;;;;;;;;;44.50;35.75;;;;;14.24;67.52;101852.91;4999426;28;45459;-77
2022/10/04 09:06:29;;;;;;;;;46.25;37.75;;;;;14.35;67.00;101852.91;5000941;28;45264;-77
2022/10/04 09:09:19;;;;;;;;;44.00;37.25;;;;;14.47;67.15;101844.06;5001346;28;45469;-76
2022/10/04 09:12:06;;;;;;;;;50.25;40.50;;;;;14.54;67.21;101837.88;4991376;28;45524;-76
2022/10/04 09:15:01;;;;;;;;;40.50;35.25;;;;;14.69;66.92;101847.56;5001309;28;45237;-76
2022/10/04 09:17:45;;;;;;;;;37.50;32.50;;;;;14.79;66.72;101851.97;4999966;28;45471;-76
2022/10/04 09:20:32;;;;;;;;;39.50;36.00;;;;;14.87;66.69;101860.75;5001129;28;45357;-76
2022/10/04 09:23:00;;;;;;;;;38.50;35.00;;;;;14.95;66.89;101860.75;5015707;28;48693;-76
2022/10/04 09:25:48;;;;;;;;;37.25;34.00;;;;;15.06;66.34;101847.44;5001229;28;45447;-75
2022/10/04 09:28:34;;;;;;;;;40.75;33.00;;;;;15.16;66.34;101850.03;5015779;28;45504;-76
2022/10/04 09:31:19;;;;;;;;;32.50;32.00;;;;;15.27;66.14;101846.44;4996270;28;45665;-76
2022/10/04 09:34:12;;;;;;;;;38.75;34.50;;;;;15.38;66.03;101836.66;4999771;28;48005;-76
2022/10/04 09:36:39;;;;;;;;;43.00;37.00;;;;;15.50;65.81;101833.91;5000495;28;45472;-76
2022/10/04 09:39:29;;;;;;;;;41.00;32.25;;;;;15.64;65.71;101837.38;5016012;28;45411;-78
2022/10/04 09:42:33;;;;;;;;;34.75;30.50;;;;;15.74;65.60;101827.56;4999311;28;45488;-76
2022/10/04 09:45:05;;;;;;;;;36.50;33.00;;;;;15.91;65.30;101829.25;4992663;28;45552;-76
2022/10/04 09:48:04;;;;;;;;;38.75;32.75;;;;;16.02;64.82;101830.91;4998277;28;45432;-76
2022/10/04 09:50:43;;;;;;;;;39.00;31.00;;;;;16.13;64.83;101827.25;4986291;28;45260;-76
2022/10/04 09:53:33;;;;;;;;;37.75;31.75;;;;;16.24;64.47;101823.59;5015753;28;45418;-76
2022/10/04 09:56:29;;;;;;;;;39.25;32.75;;;;;16.38;64.18;101819.91;5015628;28;47236;-76
2022/10/04 09:59:25;;;;;;;;;38.00;31.50;;;;;16.52;64.25;101815.34;4990528;28;45300;-77
2022/10/04 10:02:29;;;;;;;;;26.25;24.50;;;;;16.66;63.85;101812.53;4986589;28;45465;-76
2022/10/04 10:05:25;;;;;;;;;27.50;26.25;;;;;16.81;63.58;101807.03;5000900;28;45726;-77
2022/10/04 10:08:10;;;;;;;;;19.25;19.25;;;;;16.95;63.71;101802.44;4999165;28;45679;-76
2022/10/04 10:14:20;;;;;;;;;21.25;20.25;;;;;17.23;63.23;101796.72;4993426;28;45330;-77
2022/10/04 10:17:01;;;;;;;;;21.50;18.75;;;;;17.34;62.76;101788.59;5012894;28;45561;-77
2022/10/04 10:19:26;;;;;;;;;24.75;21.50;;;;;17.45;62.57;101793.75;4999229;28;45300;-77
2022/10/04 10:22:16;;;;;;;;;25.75;21.00;;;;;17.55;62.23;101790.03;5000266;28;45489;-78
2022/10/04 10:24:45;;;;;;;;;16.25;15.50;;;;;17.66;61.71;101776.56;5015353;28;45412;-78
2022/10/04 10:27:36;;;;;;;;;20.00;17.75;;;;;17.74;61.49;101779.97;5015148;28;45680;-78
2022/10/04 10:30:22;;;;;;;;;19.25;19.25;;;;;17.85;61.54;101780.69;4999127;28;45519;-81
2022/10/04 10:33:09;;;;;;;;;17.00;16.00;;;;;17.95;60.91;101773.44;5001746;28;46228;-78
2022/10/04 10:35:47;;;;;;;;;20.00;19.00;;;;;18.05;60.78;101775.03;4999873;28;45554;-75
2022/10/04 10:38:49;;;;;;;;;18.67;15.33;;;;;18.13;60.27;101783.75;5015097;28;45849;-77
2022/10/04 10:41:18;;;;;;;;;17.00;16.25;;;;;18.20;60.20;101785.41;4990255;28;46775;-79
2022/10/04 10:43:46;;;;;;;;;18.25;17.00;;;;;18.29;59.63;101774.56;5015102;28;45298;-77
2022/10/04 10:46:50;;;;;;;;;17.50;15.25;;;;;18.43;59.39;101770.75;5014832;28;45486;-77
2022/10/04 10:50:01;;;;;;;;;18.75;16.75;;;;;18.53;58.86;101764.31;4999807;28;45736;-74
2022/10/04 10:52:29;;;;;;;;;18.00;17.50;;;;;18.64;58.46;101770.31;4987963;28;46240;-74
2022/10/04 10:55:18;;;;;;;;;16.75;16.75;;;;;18.77;58.72;101765.63;5014812;28;45659;-74
2022/10/04 10:58:12;;;;;;;;;21.25;19.00;;;;;18.92;58.38;101765.31;5000084;28;45518;-75
2022/10/04 11:01:11;;;;;;;;;16.50;16.50;;;;;19.11;57.51;101775.56;4997544;28;45356;-75
2022/10/04 11:04:22;;;;;;;;;17.33;15.33;;;;;19.28;57.40;101776.06;4986987;28;45476;-76
2022/10/04 11:07:21;;;;;;;;;19.00;17.67;;;;;19.44;56.87;101767.69;4986729;28;45424;-75
2022/10/04 11:10:13;;;;;;;;;17.00;14.33;;;;;19.57;56.80;101769.16;5014672;28;45376;-74
2022/10/04 11:12:47;;;;;;;;;15.67;12.00;;;;;19.73;56.17;101764.34;5014323;28;45277;-75
2022/10/04 11:15:35;;;;;;;;;14.75;12.75;;;;;19.91;55.92;101771.84;4999114;28;45427;-76
2022/10/04 11:18:25;;;;;;;;;14.33;12.67;;;;;20.06;55.54;101767.91;4999468;28;45410;-75
2022/10/04 11:20:53;;;;;;;;;18.50;16.75;;;;;20.19;55.20;101782.69;4999651;28;45269;-75
2022/10/04 11:23:56;;;;;;;;;14.00;12.25;;;;;20.31;54.96;101778.78;4999566;28;45382;-75
2022/10/04 11:26:59;;;;;;;;;14.33;14.33;;;;;20.55;54.98;101779.06;4988041;28;45601;-75
2022/10/04 11:29:25;;;;;;;;;19.00;17.67;;;;;20.80;54.60;101784.59;4986667;28;45840;-75
2022/10/04 11:31:59;;;;;;;;;18.75;13.25;;;;;21.02;54.08;101788.38;4987497;28;45414;-76
2022/10/04 11:34:43;;;;;;;;;14.67;14.00;;;;;21.26;53.19;101794.78;4986647;28;45305;-75
2022/10/04 11:37:20;;;;;;;;;14.33;13.33;;;;;21.56;52.87;101789.38;4999069;28;45327;-75
2022/10/04 11:39:57;;;;;;;;;14.00;14.00;;;;;21.92;52.28;101789.97;4999132;28;45382;-78
2022/10/04 11:42:48;;;;;;;;;13.67;11.33;;;;;22.36;51.66;101783.97;4999637;28;45384;-78
2022/10/04 11:45:26;;;;;;;;;17.33;15.67;;;;;23.15;50.76;101784.59;5014388;28;45680;-78
2022/10/04 11:48:10;;;;;;;;;13.00;13.00;;;;;25.53;50.77;101773.09;4999120;28;46451;-78
2022/10/04 11:51:13;;;;;;;;;14.00;11.67;;;;;29.01;47.03;101765.84;4993907;28;45591;-79
2022/10/04 11:54:06;;;;;;;;;15.00;12.00;;;;;31.60;42.82;101760.34;4986438;28;45718;-78
2022/10/04 11:56:41;;;;;;;;;11.33;11.33;;;;;33.47;39.18;101755.38;4994708;28;45363;-79
2022/10/04 11:59:24;;;;;;;;;10.00;9.33;;;;;34.91;36.28;101755.53;5004486;28;47227;-80
2022/10/04 12:02:16;;;;;;;;;10.00;10.00;;;;;35.91;32.98;101751.78;4985290;28;45449;-78
2022/10/04 12:05:01;;;;;;;;;10.00;10.00;;;;;36.67;30.38;101750.88;4999012;28;45379;-79
2022/10/04 12:07:48;;;;;;;;;10.00;10.00;;;;;36.95;28.80;101760.84;4997715;28;45568;-77